Impacts TAF Board INFO
IDs:

KATL - Atlanta/Hartsfield-J, GA, US

Issued at 1349 UTC 05 Dec 2016
Updated at 1431 UTC 05 Dec 2016
Potential Impact None Slight Moderate High
Time1352Z 05/15Z 05/16Z 05/17Z 05/18Z 05/19Z 05/20Z 05/21Z 05/22Z 05/23Z 06/00Z 06/01Z 06/02Z 06/03Z
Type OBS PRVL
  [TEMP]  
PRVL PRVL PRVL PRVL PRVL PRVL PRVL PRVL PRVL PRVL PRVL PRVL
VIS 1.5 3 3 3 5 5 5 5 5 5 5 5 3 3
CIG 5 5
  [3]  
5 5 6 6 6 6 6 6 6 6 4 4
Cover OVC OVC
  [BKN]  
OVC OVC OVC OVC OVC OVC OVC OVC OVC OVC OVC OVC
FltCat IFR IFR
  [LIFR]  
IFR IFR IFR IFR IFR IFR IFR IFR IFR IFR LIFR LIFR
WX BR -DZ BR
  [--]  
-DZ BR -DZ BR -RA BR -RA BR -RA BR -RA BR -RA BR -RA BR -RA BR -RA BR -RA -DZ BR -RA -DZ BR
WDir 110 30
[30]
30 30 70 70 70 70 70 70 70 70 90 90
WSpd 4 5
  [5]  
5 5 6 6 6 6 6 6 6 6 9 9
WGst -- --
  [--]  
-- -- -- -- -- -- -- -- -- -- -- --

Raw TAF
KATL 051349Z 0514/0618 03005KT 3SM -DZ BR BKN005 OVC015
  TEMPO 0514/0516 BKN003
  FM051800 07006KT 5SM -RA BR OVC006
  FM060200 09009KT 3SM -RADZ BR OVC004
  FM061400 16006KT 5SM -RA OVC004


Raw METAR
KATL 051352Z 11004KT 1 1/2SM BR BKN005 BKN014 OVC060 08/07 A3001 RMK AO2 SFC VIS 5 SLP165 CIG 003V007 T00780072
KATL 051321Z 00000KT 1SM R09R/P6000FT BR BKN005 OVC014 08/07 A3000 RMK AO2 SFC VIS 5 CIG 003V007 T00780072
KATL 051252Z 00000KT 1SM R09R/P6000FT BR OVC004 07/07 A2999 RMK AO2 SFC VIS 4 SLP160 CIG 003V005 T00720072
KATL 051152Z 09006KT 1SM R09R/P6000FT BR OVC003 07/07 A2999 RMK AO2 SFC VIS 4 DZE48 SLP159 P0000 60001 70082 T00720067 10072 20067 58004

METAR Board
Radar Display
Forecast Discussion